Time;durP1;ratioP1;P1;durP2;ratioP2;P2;SDS_P1;SDS_P2;PMS_P1;PMS_P2;Temp;Humidity;BMP_temperature;BMP_pressure;BME280_temperature;BME280_humidity;BME280_pressure;Samples;Min_cycle;Max_cycle;Signal;HPM_P1;HPM_P2
2023/08/14 00:02:22;;;;;;;8.10;3.00;;;;;;;;;;5054074;28;20032;-67
2023/08/14 00:04:48;;;;;;;11.20;3.10;;;;;;;;;;5056746;28;20377;-67
2023/08/14 00:07:14;;;;;;;8.10;2.83;;;;;;;;;;5046999;28;20174;-67
2023/08/14 00:09:41;;;;;;;10.57;3.33;;;;;;;;;;5052887;28;20075;-67
2023/08/14 00:12:07;;;;;;;9.88;3.33;;;;;;;;;;5056534;28;20024;-67
2023/08/14 00:14:33;;;;;;;8.02;4.10;;;;;;;;;;5055345;28;20041;-67
2023/08/14 00:16:59;;;;;;;7.72;3.53;;;;;;;;;;5056261;28;20025;-67
2023/08/14 00:19:25;;;;;;;12.80;3.75;;;;;;;;;;5052290;28;20031;-67
2023/08/14 00:21:51;;;;;;;14.07;3.20;;;;;;;;;;5051004;28;20032;-67
2023/08/14 00:24:18;;;;;;;9.65;4.03;;;;;;;;;;5055909;28;20029;-66
2023/08/14 00:26:44;;;;;;;11.75;4.15;;;;;;;;;;5059897;28;20028;-67
2023/08/14 00:29:10;;;;;;;12.15;3.42;;;;;;;;;;5074100;28;20040;-67
2023/08/14 00:31:36;;;;;;;11.27;4.53;;;;;;;;;;5061318;28;20040;-69
2023/08/14 00:34:02;;;;;;;14.43;3.63;;;;;;;;;;5057845;28;20472;-69
2023/08/14 00:36:29;;;;;;;9.00;3.58;;;;;;;;;;5046811;28;20085;-69
2023/08/14 00:38:55;;;;;;;8.50;3.97;;;;;;;;;;5048636;28;20028;-69
2023/08/14 00:41:21;;;;;;;6.20;3.38;;;;;;;;;;5058381;28;20032;-69
2023/08/14 00:43:47;;;;;;;6.25;4.13;;;;;;;;;;5064679;28;20528;-70
2023/08/14 00:46:14;;;;;;;7.03;3.00;;;;;;;;;;5063528;28;20036;-69
2023/08/14 00:48:40;;;;;;;9.05;3.70;;;;;;;;;;5064923;28;20032;-69
2023/08/14 00:51:07;;;;;;;6.93;2.88;;;;;;;;;;5058873;28;20025;-69
2023/08/14 00:53:33;;;;;;;9.85;3.47;;;;;;;;;;5061432;28;20024;-69
2023/08/14 00:56:00;;;;;;;6.40;2.80;;;;;;;;;;5059930;28;20757;-69
2023/08/14 00:58:26;;;;;;;6.78;3.13;;;;;;;;;;5062074;28;20031;-69
2023/08/14 01:00:53;;;;;;;9.90;3.42;;;;;;;;;;5061408;28;20038;-69
2023/08/14 01:03:20;;;;;;;5.85;3.20;;;;;;;;;;5060046;28;20028;-69
2023/08/14 01:05:46;;;;;;;9.02;3.60;;;;;;;;;;5055732;28;20040;-69
2023/08/14 01:08:12;;;;;;;7.15;3.00;;;;;;;;;;5058646;28;20024;-69
2023/08/14 01:10:41;;;;;;;7.82;2.95;;;;;;;;;;5060248;28;20301;-69
2023/08/14 01:13:26;;;;;;;12.23;3.25;;;;;;;;;;5050740;28;20032;-69
2023/08/14 01:15:56;;;;;;;11.55;3.65;;;;;;;;;;5062633;28;20067;-70
2023/08/14 01:18:22;;;;;;;8.88;2.83;;;;;;;;;;5058906;28;20033;-70
2023/08/14 01:21:21;;;;;;;9.15;2.88;;;;;;;;;;5055318;28;20467;-69
2023/08/14 01:23:56;;;;;;;6.07;2.72;;;;;;;;;;5031628;28;20040;-70
2023/08/14 01:26:22;;;;;;;;;;;;;;;;;;5056629;28;20090;-69
2023/08/14 01:28:48;;;;;;;6.68;2.92;;;;;;;;;;5068885;28;19923;-69
2023/08/14 01:31:14;;;;;;;4.45;3.00;;;;;;;;;;5069187;28;20055;-69
2023/08/14 01:33:40;;;;;;;8.77;3.35;;;;;;;;;;5061431;28;20518;-69
2023/08/14 01:36:13;;;;;;;6.25;3.00;;;;;;;;;;5052280;28;20052;-70
2023/08/14 01:38:42;;;;;;;6.88;2.97;;;;;;;;;;5058563;28;20024;-69
2023/08/14 01:41:21;;;;;;;4.53;2.55;;;;;;;;;;5064250;28;20310;-69
2023/08/14 01:43:53;;;;;;;6.15;2.90;;;;;;;;;;5065286;28;20396;-70
2023/08/14 01:46:19;;;;;;;5.88;3.00;;;;;;;;;;5060845;28;20047;-69
2023/08/14 01:48:47;;;;;;;9.85;4.05;;;;;;;;;;5051696;28;20424;-70
2023/08/14 01:51:13;;;;;;;6.60;2.67;;;;;;;;;;5054419;28;20515;-70
2023/08/14 01:53:40;;;;;;;9.90;3.05;;;;;;;;;;5070866;28;20066;-69
2023/08/14 01:56:07;;;;;;;6.97;3.10;;;;;;;;;;5063215;28;20028;-69
2023/08/14 01:58:33;;;;;;;6.05;3.08;;;;;;;;;;5057008;28;20035;-70
2023/08/14 02:00:59;;;;;;;6.18;3.08;;;;;;;;;;5054768;28;20044;-70
2023/08/14 02:03:25;;;;;;;5.95;3.03;;;;;;;;;;5059689;28;20475;-69
2023/08/14 02:05:52;;;;;;;5.97;2.90;;;;;;;;;;5057550;28;20098;-69
2023/08/14 02:08:18;;;;;;;9.30;4.20;;;;;;;;;;5055620;28;20032;-69
2023/08/14 02:10:46;;;;;;;5.90;3.05;;;;;;;;;;5050879;28;20082;-69
2023/08/14 02:13:12;;;;;;;4.38;2.72;;;;;;;;;;5065066;28;20145;-69
2023/08/14 02:15:38;;;;;;;6.18;3.20;;;;;;;;;;5070115;28;20522;-69
2023/08/14 02:18:04;;;;;;;5.00;3.38;;;;;;;;;;5047408;28;20039;-69
2023/08/14 02:20:30;;;;;;;7.68;3.58;;;;;;;;;;5068782;28;20044;-69
2023/08/14 02:22:56;;;;;;;10.02;3.33;;;;;;;;;;5049576;28;22184;-69
2023/08/14 02:25:23;;;;;;;6.47;3.25;;;;;;;;;;5056870;28;20033;-69
2023/08/14 02:27:49;;;;;;;7.30;3.90;;;;;;;;;;5058797;28;20032;-69
2023/08/14 02:30:15;;;;;;;8.48;3.30;;;;;;;;;;5054202;28;20365;-70
2023/08/14 02:32:41;;;;;;;6.80;3.35;;;;;;;;;;5061368;28;20024;-69
2023/08/14 02:35:07;;;;;;;7.43;3.45;;;;;;;;;;5063525;28;20314;-69
2023/08/14 02:37:37;;;;;;;8.60;3.22;;;;;;;;;;5049381;28;20514;-69
2023/08/14 02:40:03;;;;;;;9.25;4.35;;;;;;;;;;5050781;28;20041;-69
2023/08/14 02:42:29;;;;;;;8.85;4.70;;;;;;;;;;5049449;28;20399;-69
2023/08/14 02:44:55;;;;;;;7.47;3.78;;;;;;;;;;5057897;28;20107;-69
2023/08/14 02:47:21;;;;;;;5.80;2.95;;;;;;;;;;5056100;28;20383;-69
2023/08/14 02:49:47;;;;;;;8.95;4.00;;;;;;;;;;5063026;28;20029;-69
2023/08/14 02:52:14;;;;;;;5.40;3.42;;;;;;;;;;5068479;28;20081;-69
2023/08/14 02:54:40;;;;;;;8.38;3.42;;;;;;;;;;5058708;28;20035;-69
2023/08/14 02:57:06;;;;;;;8.30;3.67;;;;;;;;;;5056463;28;20024;-69
2023/08/14 02:59:33;;;;;;;10.07;3.55;;;;;;;;;;5058497;28;20029;-69
2023/08/14 03:02:00;;;;;;;7.78;3.20;;;;;;;;;;5058663;28;20043;-68
2023/08/14 03:04:26;;;;;;;7.43;3.47;;;;;;;;;;5061398;28;20472;-69
2023/08/14 03:06:52;;;;;;;8.15;3.55;;;;;;;;;;5059494;28;20025;-69
2023/08/14 03:09:18;;;;;;;6.32;3.63;;;;;;;;;;5054215;28;20037;-69
2023/08/14 03:11:44;;;;;;;5.88;3.30;;;;;;;;;;5052431;28;20050;-69
2023/08/14 03:14:10;;;;;;;8.20;3.58;;;;;;;;;;5057779;28;20500;-69
2023/08/14 03:16:36;;;;;;;6.35;3.17;;;;;;;;;;5051183;28;20149;-69
2023/08/14 03:19:02;;;;;;;8.07;3.83;;;;;;;;;;5054096;28;20029;-69
2023/08/14 03:21:28;;;;;;;8.88;4.00;;;;;;;;;;5056491;28;20071;-69
2023/08/14 03:23:54;;;;;;;7.70;4.00;;;;;;;;;;5064333;28;20048;-69
2023/08/14 03:26:21;;;;;;;12.07;3.88;;;;;;;;;;5059222;28;20032;-69
2023/08/14 03:28:47;;;;;;;8.82;3.72;;;;;;;;;;5055926;28;20410;-69
2023/08/14 03:31:13;;;;;;;6.10;3.38;;;;;;;;;;5055823;28;20076;-69
2023/08/14 03:33:39;;;;;;;8.95;3.63;;;;;;;;;;5059617;28;20106;-69
2023/08/14 03:36:05;;;;;;;6.88;3.65;;;;;;;;;;5061402;28;20101;-69
2023/08/14 03:38:31;;;;;;;7.95;3.90;;;;;;;;;;5053178;28;20036;-69
2023/08/14 03:40:58;;;;;;;12.43;3.83;;;;;;;;;;5063073;28;20029;-70
2023/08/14 03:43:24;;;;;;;8.63;4.20;;;;;;;;;;5066738;28;20136;-70
2023/08/14 03:45:51;;;;;;;7.18;3.30;;;;;;;;;;5063468;28;20376;-69
2023/08/14 03:48:17;;;;;;;8.05;3.60;;;;;;;;;;5058238;28;20020;-69
2023/08/14 03:50:47;;;;;;;9.13;3.63;;;;;;;;;;5054328;28;20024;-70
2023/08/14 03:53:13;;;;;;;8.23;3.28;;;;;;;;;;5067411;28;20028;-70
2023/08/14 03:55:39;;;;;;;7.38;3.42;;;;;;;;;;5063456;28;20040;-70
2023/08/14 03:58:05;;;;;;;9.85;4.15;;;;;;;;;;5070113;28;20028;-69
2023/08/14 04:00:31;;;;;;;9.02;3.97;;;;;;;;;;5059186;28;20059;-69
2023/08/14 04:02:57;;;;;;;7.13;3.75;;;;;;;;;;5068088;28;20030;-69
2023/08/14 04:05:23;;;;;;;7.47;3.70;;;;;;;;;;5054980;28;20032;-70
2023/08/14 04:07:49;;;;;;;7.93;3.40;;;;;;;;;;5061256;28;20457;-69
2023/08/14 04:10:16;;;;;;;8.13;3.67;;;;;;;;;;5061927;28;20396;-69
2023/08/14 04:12:42;;;;;;;5.82;3.33;;;;;;;;;;5048941;28;20079;-69
2023/08/14 04:15:15;;;;;;;6.65;3.90;;;;;;;;;;5056201;28;20029;-69
2023/08/14 04:17:41;;;;;;;9.27;3.63;;;;;;;;;;5059488;28;20062;-69
2023/08/14 04:20:08;;;;;;;4.93;3.35;;;;;;;;;;5054927;28;20647;-69
2023/08/14 04:22:34;;;;;;;7.55;3.30;;;;;;;;;;5057413;28;20042;-69
2023/08/14 04:25:00;;;;;;;9.82;4.95;;;;;;;;;;5058292;28;20472;-69
2023/08/14 04:27:26;;;;;;;9.40;3.25;;;;;;;;;;5061885;28;20028;-69
2023/08/14 04:29:53;;;;;;;7.60;3.20;;;;;;;;;;5061711;28;20105;-69
2023/08/14 04:32:19;;;;;;;6.90;3.60;;;;;;;;;;5066446;28;20037;-69
2023/08/14 04:34:45;;;;;;;8.57;3.30;;;;;;;;;;5056188;28;20524;-69
2023/08/14 04:37:11;;;;;;;5.85;3.00;;;;;;;;;;5058103;28;20028;-69
2023/08/14 04:39:37;;;;;;;8.82;4.05;;;;;;;;;;5053787;28;20036;-69
2023/08/14 04:42:03;;;;;;;8.35;3.95;;;;;;;;;;5061199;28;20020;-69
2023/08/14 04:44:29;;;;;;;8.45;3.30;;;;;;;;;;5053091;28;20021;-69
2023/08/14 04:46:56;;;;;;;6.45;3.35;;;;;;;;;;5055738;28;20671;-70
2023/08/14 04:49:22;;;;;;;6.32;3.22;;;;;;;;;;5050638;28;20059;-70
2023/08/14 04:51:48;;;;;;;5.53;3.17;;;;;;;;;;5050401;28;20060;-69
2023/08/14 04:54:14;;;;;;;7.28;3.42;;;;;;;;;;5054823;28;20362;-70
2023/08/14 04:56:40;;;;;;;11.63;3.80;;;;;;;;;;5054906;28;20036;-70
2023/08/14 04:59:06;;;;;;;10.82;3.50;;;;;;;;;;5053332;28;20017;-69
2023/08/14 05:01:32;;;;;;;8.80;3.88;;;;;;;;;;5048591;28;20496;-69
2023/08/14 05:03:58;;;;;;;11.93;3.97;;;;;;;;;;5053050;28;20051;-69
2023/08/14 05:06:24;;;;;;;5.13;3.20;;;;;;;;;;5059960;28;20028;-69
2023/08/14 05:08:50;;;;;;;9.18;3.72;;;;;;;;;;5051881;28;20100;-69
2023/08/14 05:11:17;;;;;;;6.05;3.05;;;;;;;;;;5057213;28;20379;-70
2023/08/14 05:13:44;;;;;;;6.60;3.10;;;;;;;;;;5066745;28;20490;-70
2023/08/14 05:16:10;;;;;;;10.82;5.15;;;;;;;;;;5054903;28;20035;-70
2023/08/14 05:18:36;;;;;;;6.00;4.22;;;;;;;;;;5063838;28;20023;-71
2023/08/14 05:21:03;;;;;;;6.57;3.28;;;;;;;;;;5062453;28;20426;-69
2023/08/14 05:23:29;;;;;;;9.10;3.50;;;;;;;;;;5062336;28;20043;-69
2023/08/14 05:25:55;;;;;;;8.85;4.10;;;;;;;;;;5057987;28;20046;-70
2023/08/14 05:28:21;;;;;;;7.45;3.50;;;;;;;;;;5055414;28;20033;-69
2023/08/14 05:30:47;;;;;;;8.73;3.75;;;;;;;;;;5051456;28;20108;-70
2023/08/14 05:33:13;;;;;;;10.30;3.60;;;;;;;;;;5052224;28;20033;-69
2023/08/14 05:35:40;;;;;;;8.80;3.63;;;;;;;;;;5059881;28;20525;-70
2023/08/14 05:38:06;;;;;;;9.43;3.72;;;;;;;;;;5049216;28;20028;-69
2023/08/14 05:40:32;;;;;;;7.05;3.22;;;;;;;;;;5057653;28;20420;-69
2023/08/14 05:43:04;;;;;;;9.65;4.10;;;;;;;;;;5058101;28;20025;-71
2023/08/14 05:45:31;;;;;;;8.18;3.67;;;;;;;;;;5063013;28;20147;-72
2023/08/14 05:47:57;;;;;;;5.13;3.83;;;;;;;;;;5059593;28;20051;-71
2023/08/14 05:50:25;;;;;;;8.63;4.03;;;;;;;;;;5077217;28;20128;-72
2023/08/14 05:52:51;;;;;;;9.82;3.47;;;;;;;;;;5055355;28;20021;-72
2023/08/14 05:55:17;;;;;;;8.95;3.63;;;;;;;;;;5055819;28;20020;-72
2023/08/14 05:57:43;;;;;;;6.97;3.80;;;;;;;;;;5061699;28;20028;-72
2023/08/14 06:00:10;;;;;;;7.68;3.47;;;;;;;;;;5054612;28;20033;-72
2023/08/14 06:02:36;;;;;;;10.10;4.00;;;;;;;;;;5057417;28;20043;-72
2023/08/14 06:05:03;;;;;;;6.30;3.20;;;;;;;;;;5055194;28;20021;-71
2023/08/14 06:07:29;;;;;;;6.07;3.53;;;;;;;;;;5068985;28;20032;-71
2023/08/14 06:09:55;;;;;;;7.05;2.95;;;;;;;;;;5062541;28;20392;-72
2023/08/14 06:12:21;;;;;;;8.65;3.30;;;;;;;;;;5054916;28;20036;-72
2023/08/14 06:14:47;;;;;;;6.55;3.53;;;;;;;;;;5058443;28;20064;-71
2023/08/14 06:17:13;;;;;;;6.72;3.30;;;;;;;;;;5053759;28;20029;-72
2023/08/14 06:19:39;;;;;;;7.20;3.30;;;;;;;;;;5062133;28;20028;-72
2023/08/14 06:22:05;;;;;;;8.70;3.65;;;;;;;;;;5060034;28;20029;-71
2023/08/14 06:24:32;;;;;;;6.13;3.10;;;;;;;;;;5052149;28;20052;-71
2023/08/14 06:26:58;;;;;;;7.63;3.55;;;;;;;;;;5053046;28;20392;-71
2023/08/14 06:29:24;;;;;;;7.00;3.22;;;;;;;;;;5054236;28;20036;-71
2023/08/14 06:31:50;;;;;;;7.32;4.22;;;;;;;;;;5055243;28;20498;-71
2023/08/14 06:34:16;;;;;;;7.47;3.70;;;;;;;;;;5050595;28;20116;-71
2023/08/14 06:36:43;;;;;;;6.72;3.08;;;;;;;;;;5057982;28;20128;-71
2023/08/14 06:39:09;;;;;;;5.28;2.95;;;;;;;;;;5056702;28;20028;-71
2023/08/14 06:41:35;;;;;;;4.80;3.03;;;;;;;;;;5061252;28;20376;-71
2023/08/14 06:44:01;;;;;;;6.88;2.90;;;;;;;;;;5059009;28;20059;-71
2023/08/14 06:46:27;;;;;;;7.60;2.80;;;;;;;;;;5064027;28;20380;-71
2023/08/14 06:48:53;;;;;;;7.47;3.60;;;;;;;;;;5058124;28;20024;-71
2023/08/14 06:51:19;;;;;;;7.43;2.58;;;;;;;;;;5051252;28;20444;-71
2023/08/14 06:53:45;;;;;;;3.95;3.03;;;;;;;;;;5052602;28;20027;-71
2023/08/14 06:56:11;;;;;;;7.40;3.38;;;;;;;;;;5056982;28;20491;-71
2023/08/14 06:58:37;;;;;;;3.70;2.80;;;;;;;;;;5061717;28;20050;-71
2023/08/14 07:01:03;;;;;;;5.00;2.70;;;;;;;;;;5061360;28;20040;-71
2023/08/14 07:03:30;;;;;;;4.32;2.35;;;;;;;;;;5058293;28;20040;-71
2023/08/14 07:05:56;;;;;;;6.50;2.40;;;;;;;;;;5063026;28;20068;-71
2023/08/14 07:08:22;;;;;;;4.38;2.70;;;;;;;;;;5056168;28;20036;-71
2023/08/14 07:10:48;;;;;;;3.63;2.40;;;;;;;;;;5062757;28;20020;-71
2023/08/14 07:13:14;;;;;;;6.07;2.80;;;;;;;;;;5073846;28;20021;-71
2023/08/14 07:15:40;;;;;;;5.20;2.83;;;;;;;;;;5063458;28;20024;-71
2023/08/14 07:18:06;;;;;;;5.80;2.70;;;;;;;;;;5057352;28;20066;-72
2023/08/14 07:20:33;;;;;;;5.53;2.70;;;;;;;;;;5063905;28;20063;-71
2023/08/14 07:23:00;;;;;;;8.57;2.67;;;;;;;;;;5058407;28;20028;-71
2023/08/14 07:25:26;;;;;;;5.03;2.40;;;;;;;;;;5059229;28;20064;-71
2023/08/14 07:27:53;;;;;;;5.63;2.50;;;;;;;;;;5064009;28;20064;-71
2023/08/14 07:30:19;;;;;;;2.75;2.22;;;;;;;;;;5060495;28;20506;-71
2023/08/14 07:32:45;;;;;;;6.57;2.33;;;;;;;;;;5063884;28;20029;-71
2023/08/14 07:35:14;;;;;;;7.03;3.35;;;;;;;;;;5062459;28;20669;-71
2023/08/14 07:37:40;;;;;;;8.50;3.05;;;;;;;;;;5055070;28;20069;-71
2023/08/14 07:40:07;;;;;;;3.78;2.60;;;;;;;;;;5062793;28;20024;-72
2023/08/14 07:42:33;;;;;;;3.97;2.50;;;;;;;;;;5062652;28;20075;-72
2023/08/14 07:44:59;;;;;;;3.90;2.10;;;;;;;;;;5064599;28;20325;-72
2023/08/14 07:47:26;;;;;;;8.15;2.60;;;;;;;;;;5062846;28;20594;-71
2023/08/14 07:49:52;;;;;;;5.72;3.50;;;;;;;;;;5066157;28;20040;-72
2023/08/14 07:52:18;;;;;;;7.40;2.90;;;;;;;;;;5057808;28;20029;-72
2023/08/14 07:54:44;;;;;;;3.67;2.38;;;;;;;;;;5065170;28;20071;-71
2023/08/14 07:57:11;;;;;;;4.50;2.97;;;;;;;;;;5069121;28;20483;-71
2023/08/14 07:59:37;;;;;;;5.85;2.47;;;;;;;;;;5060528;28;20047;-72
2023/08/14 08:02:03;;;;;;;5.57;2.95;;;;;;;;;;5065935;28;20436;-72
2023/08/14 08:04:34;;;;;;;3.97;2.80;;;;;;;;;;5060611;28;20539;-72
2023/08/14 08:07:00;;;;;;;3.85;2.50;;;;;;;;;;5057037;28;20024;-73
2023/08/14 08:09:26;;;;;;;9.65;2.75;;;;;;;;;;5062173;28;20067;-73
2023/08/14 08:11:53;;;;;;;6.75;2.67;;;;;;;;;;5061775;28;20032;-73
2023/08/14 08:14:19;;;;;;;6.30;2.55;;;;;;;;;;5059000;28;20634;-72
2023/08/14 08:16:45;;;;;;;8.93;3.72;;;;;;;;;;5062110;28;20111;-72
2023/08/14 08:19:11;;;;;;;5.22;2.58;;;;;;;;;;5067629;28;20029;-72
2023/08/14 08:21:37;;;;;;;7.00;2.38;;;;;;;;;;5054485;28;20031;-72
2023/08/14 08:24:05;;;;;;;3.58;2.45;;;;;;;;;;5058704;28;20048;-72
2023/08/14 08:26:31;;;;;;;5.82;2.65;;;;;;;;;;5051128;28;20029;-72
2023/08/14 08:28:57;;;;;;;4.65;2.65;;;;;;;;;;5064743;28;20016;-72
2023/08/14 08:31:23;;;;;;;8.13;2.53;;;;;;;;;;5055442;28;20473;-72
2023/08/14 08:33:50;;;;;;;6.97;2.97;;;;;;;;;;5057010;28;20029;-72
2023/08/14 08:36:19;;;;;;;5.35;2.70;;;;;;;;;;5065355;28;20048;-72
2023/08/14 08:38:46;;;;;;;5.72;2.55;;;;;;;;;;5060296;28;20075;-72
2023/08/14 08:41:19;;;;;;;4.55;2.60;;;;;;;;;;5059904;28;20464;-72
2023/08/14 08:43:45;;;;;;;5.90;2.80;;;;;;;;;;5064925;28;20479;-72
2023/08/14 08:46:12;;;;;;;4.85;2.78;;;;;;;;;;5054648;28;20032;-72
2023/08/14 08:48:41;;;;;;;5.30;3.03;;;;;;;;;;5071245;28;20103;-73
2023/08/14 08:51:07;;;;;;;5.45;2.72;;;;;;;;;;5072380;28;20098;-72
2023/08/14 08:53:34;;;;;;;7.78;2.85;;;;;;;;;;5061640;28;20032;-72
2023/08/14 08:56:00;;;;;;;4.32;2.60;;;;;;;;;;5074431;28;20037;-72
2023/08/14 08:58:27;;;;;;;7.70;2.63;;;;;;;;;;5053882;28;20086;-72
2023/08/14 09:00:54;;;;;;;4.13;2.47;;;;;;;;;;5061847;28;20021;-72
2023/08/14 09:03:21;;;;;;;7.38;2.50;;;;;;;;;;5057676;28;20029;-72
2023/08/14 09:05:47;;;;;;;6.18;2.50;;;;;;;;;;5062471;28;20052;-72
2023/08/14 09:08:13;;;;;;;4.35;2.25;;;;;;;;;;5057784;28;20028;-72
2023/08/14 09:10:39;;;;;;;8.07;3.15;;;;;;;;;;5059577;28;20036;-71
2023/08/14 09:13:06;;;;;;;4.20;2.40;;;;;;;;;;5061578;28;20154;-70
2023/08/14 09:15:32;;;;;;;6.50;2.80;;;;;;;;;;5058443;28;20036;-71
2023/08/14 09:17:58;;;;;;;7.75;2.53;;;;;;;;;;5061621;28;20098;-70
2023/08/14 09:20:25;;;;;;;5.47;2.33;;;;;;;;;;5060862;28;20085;-70
2023/08/14 09:22:57;;;;;;;3.67;2.40;;;;;;;;;;5059586;28;20021;-70
2023/08/14 09:25:23;;;;;;;6.95;2.95;;;;;;;;;;5068395;28;20032;-71
2023/08/14 09:27:49;;;;;;;5.32;2.83;;;;;;;;;;5058927;28;20032;-70
2023/08/14 09:30:15;;;;;;;7.25;2.55;;;;;;;;;;5057556;28;20033;-70
2023/08/14 09:32:41;;;;;;;3.45;3.13;;;;;;;;;;5061507;28;20494;-70
2023/08/14 09:35:08;;;;;;;4.63;2.35;;;;;;;;;;5059638;28;20234;-71
2023/08/14 09:37:35;;;;;;;4.97;2.40;;;;;;;;;;5054434;28;20100;-71
2023/08/14 09:40:15;;;;;;;4.75;2.30;;;;;;;;;;5061381;28;20215;-71
2023/08/14 09:42:45;;;;;;;5.45;2.72;;;;;;;;;;5060305;28;20037;-71
2023/08/14 09:45:15;;;;;;;5.93;2.10;;;;;;;;;;5055896;28;20103;-71
2023/08/14 09:47:42;;;;;;;7.40;2.70;;;;;;;;;;5062710;28;20103;-71
2023/08/14 09:50:08;;;;;;;4.03;2.42;;;;;;;;;;5067872;28;20033;-71
2023/08/14 09:52:35;;;;;;;3.97;2.30;;;;;;;;;;5055007;28;20024;-69
2023/08/14 09:55:02;;;;;;;4.82;2.38;;;;;;;;;;5060790;28;20082;-70
2023/08/14 09:57:28;;;;;;;5.25;2.30;;;;;;;;;;5064984;28;20021;-70
2023/08/14 09:59:54;;;;;;;3.35;2.10;;;;;;;;;;5062336;28;20389;-70
2023/08/14 10:02:22;;;;;;;3.30;1.95;;;;;;;;;;5058875;28;20025;-71
2023/08/14 10:04:49;;;;;;;5.57;2.50;;;;;;;;;;5070393;28;20020;-71
2023/08/14 10:07:16;;;;;;;2.97;1.90;;;;;;;;;;5059433;28;20039;-71
2023/08/14 10:09:44;;;;;;;5.57;2.38;;;;;;;;;;5059028;28;20035;-71
2023/08/14 10:12:13;;;;;;;5.32;2.05;;;;;;;;;;5056066;28;20025;-70
2023/08/14 10:14:41;;;;;;;2.75;2.13;;;;;;;;;;5062375;28;20035;-71
2023/08/14 10:17:10;;;;;;;6.45;2.00;;;;;;;;;;5057157;28;20094;-71
2023/08/14 10:19:37;;;;;;;3.95;1.90;;;;;;;;;;5055524;28;20499;-71
2023/08/14 10:22:06;;;;;;;5.35;2.40;;;;;;;;;;5055526;28;20025;-71
2023/08/14 10:24:34;;;;;;;5.30;2.47;;;;;;;;;;5050646;28;20025;-71
2023/08/14 10:27:01;;;;;;;3.50;2.00;;;;;;;;;;5055278;28;20392;-71
2023/08/14 10:29:28;;;;;;;5.93;2.50;;;;;;;;;;5051776;28;20506;-71
2023/08/14 10:31:54;;;;;;;3.17;2.13;;;;;;;;;;5063303;28;20035;-71
2023/08/14 10:34:21;;;;;;;3.80;2.53;;;;;;;;;;5053549;28;20034;-71
2023/08/14 10:36:50;;;;;;;4.88;2.40;;;;;;;;;;5056718;28;20162;-71
2023/08/14 10:39:17;;;;;;;2.90;2.10;;;;;;;;;;5059752;28;20119;-72
2023/08/14 10:41:43;;;;;;;4.68;2.35;;;;;;;;;;5056127;28;20472;-71
2023/08/14 10:44:10;;;;;;;3.25;2.10;;;;;;;;;;5058216;28;20105;-71
2023/08/14 10:46:37;;;;;;;4.55;2.60;;;;;;;;;;5054531;28;20097;-71
2023/08/14 10:49:03;;;;;;;5.07;2.95;;;;;;;;;;5050223;28;20178;-71
2023/08/14 10:51:33;;;;;;;3.17;2.30;;;;;;;;;;5059056;28;20052;-71
2023/08/14 10:54:09;;;;;;;4.65;2.13;;;;;;;;;;5050329;28;20028;-71
2023/08/14 10:56:42;;;;;;;4.30;2.35;;;;;;;;;;5060465;28;20029;-71
2023/08/14 10:59:19;;;;;;;5.60;2.90;;;;;;;;;;5053124;28;20424;-71
2023/08/14 11:01:49;;;;;;;5.97;2.40;;;;;;;;;;5062279;28;20021;-70
2023/08/14 11:04:16;;;;;;;3.30;2.22;;;;;;;;;;5054482;28;20020;-71
2023/08/14 11:07:02;;;;;;;6.43;2.10;;;;;;;;;;5053620;28;20042;-71
2023/08/14 11:09:32;;;;;;;5.13;3.20;;;;;;;;;;5050859;28;20021;-71
2023/08/14 11:12:01;;;;;;;4.88;4.15;;;;;;;;;;5058472;28;20344;-71
2023/08/14 11:14:27;;;;;;;3.95;2.63;;;;;;;;;;5064052;28;20120;-71
2023/08/14 11:16:54;;;;;;;5.50;2.38;;;;;;;;;;5062998;28;20107;-71
2023/08/14 11:19:20;;;;;;;4.07;2.10;;;;;;;;;;5060321;28;20056;-71
2023/08/14 11:21:47;;;;;;;3.45;1.80;;;;;;;;;;5057614;28;20025;-70
2023/08/14 11:24:13;;;;;;;4.80;2.20;;;;;;;;;;5053565;28;20164;-70
2023/08/14 11:26:39;;;;;;;3.22;2.25;;;;;;;;;;5056100;28;20037;-72
2023/08/14 11:29:05;;;;;;;8.13;2.30;;;;;;;;;;5053368;28;20025;-70
2023/08/14 11:31:31;;;;;;;3.25;2.08;;;;;;;;;;5051073;28;20036;-70
2023/08/14 11:33:58;;;;;;;5.63;3.15;;;;;;;;;;5053029;28;20047;-71
2023/08/14 11:36:24;;;;;;;3.10;2.35;;;;;;;;;;5054529;28;20056;-71
2023/08/14 11:38:51;;;;;;;3.33;2.45;;;;;;;;;;5055635;28;20162;-72
2023/08/14 11:41:17;;;;;;;2.88;2.10;;;;;;;;;;5052005;28;20429;-71
2023/08/14 11:43:45;;;;;;;3.50;2.53;;;;;;;;;;5058728;28;20032;-71
2023/08/14 11:46:11;;;;;;;3.20;2.40;;;;;;;;;;5062328;28;20218;-71
2023/08/14 11:48:40;;;;;;;7.03;2.50;;;;;;;;;;5059185;28;20216;-71
2023/08/14 11:51:07;;;;;;;2.92;2.03;;;;;;;;;;5062971;28;20048;-71
2023/08/14 11:53:34;;;;;;;4.40;2.40;;;;;;;;;;5056511;28;20576;-71
2023/08/14 11:56:00;;;;;;;3.50;2.00;;;;;;;;;;5062313;28;20029;-71
2023/08/14 11:58:26;;;;;;;2.58;2.10;;;;;;;;;;5055971;28;20040;-71
2023/08/14 12:00:52;;;;;;;4.15;2.50;;;;;;;;;;5060236;28;20028;-71
2023/08/14 12:03:19;;;;;;;3.38;2.00;;;;;;;;;;5055331;28;20400;-71
2023/08/14 12:05:48;;;;;;;3.08;2.20;;;;;;;;;;5058942;28;20029;-71
2023/08/14 12:08:14;;;;;;;2.88;2.30;;;;;;;;;;5067010;28;20032;-71
2023/08/14 12:10:41;;;;;;;3.28;2.33;;;;;;;;;;5058769;28;20067;-72
2023/08/14 12:13:07;;;;;;;2.55;2.20;;;;;;;;;;5057199;28;20025;-71
2023/08/14 12:15:33;;;;;;;3.50;2.10;;;;;;;;;;5063507;28;20037;-72
2023/08/14 12:18:00;;;;;;;2.53;2.20;;;;;;;;;;5054162;28;20032;-72
2023/08/14 12:20:31;;;;;;;2.20;2.00;;;;;;;;;;5065094;28;20525;-71
2023/08/14 12:23:12;;;;;;;2.75;2.05;;;;;;;;;;5053916;28;20071;-71
2023/08/14 12:25:38;;;;;;;3.03;2.10;;;;;;;;;;5050249;28;20058;-71
2023/08/14 12:28:05;;;;;;;2.85;2.03;;;;;;;;;;5052474;28;20404;-72
2023/08/14 12:30:31;;;;;;;2.03;1.80;;;;;;;;;;5051786;28;20033;-73
2023/08/14 12:32:58;;;;;;;2.30;1.98;;;;;;;;;;5050678;28;20032;-72
2023/08/14 12:35:24;;;;;;;2.00;1.80;;;;;;;;;;5053244;28;20512;-71
2023/08/14 12:37:50;;;;;;;1.80;1.70;;;;;;;;;;5061051;28;20071;-72
2023/08/14 12:40:16;;;;;;;2.30;1.90;;;;;;;;;;5057565;28;20621;-72
2023/08/14 12:42:42;;;;;;;2.30;1.90;;;;;;;;;;5057262;28;20028;-71
2023/08/14 12:45:09;;;;;;;1.80;1.70;;;;;;;;;;5059087;28;20541;-71
2023/08/14 12:47:35;;;;;;;3.28;1.83;;;;;;;;;;5065826;28;20033;-71
2023/08/14 12:50:01;;;;;;;1.63;1.52;;;;;;;;;;5058667;28;20035;-71
2023/08/14 12:52:27;;;;;;;2.03;1.83;;;;;;;;;;5048287;28;20134;-71
2023/08/14 12:54:53;;;;;;;2.70;2.05;;;;;;;;;;5058394;28;20392;-72
2023/08/14 12:57:19;;;;;;;1.70;1.60;;;;;;;;;;5060287;28;20382;-71
2023/08/14 12:59:45;;;;;;;2.40;1.90;;;;;;;;;;5052052;28;20024;-71
2023/08/14 13:02:11;;;;;;;2.92;2.08;;;;;;;;;;5052486;28;20500;-72
2023/08/14 13:04:37;;;;;;;2.10;1.90;;;;;;;;;;5052615;28;20499;-71
2023/08/14 13:07:03;;;;;;;3.42;2.00;;;;;;;;;;5059757;28;20466;-71
2023/08/14 13:09:29;;;;;;;4.15;2.00;;;;;;;;;;5058270;28;20062;-71
2023/08/14 13:11:56;;;;;;;2.97;2.10;;;;;;;;;;5052927;28;20068;-71
2023/08/14 13:14:22;;;;;;;2.78;2.20;;;;;;;;;;5056753;28;20028;-71
2023/08/14 13:16:48;;;;;;;4.32;2.00;;;;;;;;;;5049300;28;20029;-71
2023/08/14 13:19:14;;;;;;;4.03;2.10;;;;;;;;;;5066344;28;20477;-71
2023/08/14 13:21:40;;;;;;;2.67;2.00;;;;;;;;;;5052322;28;20074;-71
2023/08/14 13:24:06;;;;;;;2.33;2.05;;;;;;;;;;5057504;28;20108;-71
2023/08/14 13:26:35;;;;;;;3.03;2.05;;;;;;;;;;5054258;28;20567;-72
2023/08/14 13:29:01;;;;;;;2.10;1.60;;;;;;;;;;5062312;28;20028;-71
2023/08/14 13:31:27;;;;;;;2.20;2.00;;;;;;;;;;5063022;28;20115;-71
2023/08/14 13:33:53;;;;;;;2.17;1.77;;;;;;;;;;5057000;28;20575;-72
2023/08/14 13:36:19;;;;;;;2.47;2.00;;;;;;;;;;5054981;28;20072;-71
2023/08/14 13:38:46;;;;;;;2.55;2.00;;;;;;;;;;5055776;28;20028;-71
2023/08/14 13:41:12;;;;;;;2.47;1.80;;;;;;;;;;5048421;28;20492;-71
2023/08/14 13:43:38;;;;;;;2.70;1.92;;;;;;;;;;5055684;28;20020;-71
2023/08/14 13:46:04;;;;;;;2.47;1.80;;;;;;;;;;5050413;28;20840;-69
2023/08/14 13:48:30;;;;;;;2.85;1.92;;;;;;;;;;5049471;28;20047;-70
2023/08/14 13:50:57;;;;;;;3.75;2.45;;;;;;;;;;5050433;28;20415;-69
2023/08/14 13:53:23;;;;;;;2.00;1.77;;;;;;;;;;5053343;28;20298;-70
2023/08/14 13:55:50;;;;;;;2.58;1.90;;;;;;;;;;5053144;28;20040;-70
2023/08/14 13:58:16;;;;;;;1.88;1.65;;;;;;;;;;5048527;28;20430;-69
2023/08/14 14:00:42;;;;;;;3.67;1.80;;;;;;;;;;5055407;28;20036;-69
2023/08/14 14:03:08;;;;;;;1.80;1.70;;;;;;;;;;5058128;28;20154;-70
2023/08/14 14:05:34;;;;;;;1.90;1.80;;;;;;;;;;5048669;28;20060;-69
2023/08/14 14:08:00;;;;;;;2.20;1.63;;;;;;;;;;5056291;28;20029;-68
2023/08/14 14:10:27;;;;;;;3.67;1.60;;;;;;;;;;5062571;28;20107;-69
2023/08/14 14:12:53;;;;;;;2.05;1.40;;;;;;;;;;5064276;28;20116;-69
2023/08/14 14:15:19;;;;;;;1.63;1.52;;;;;;;;;;5056813;28;20082;-69
2023/08/14 14:17:45;;;;;;;2.63;1.60;;;;;;;;;;5052054;28;20032;-69
2023/08/14 14:20:11;;;;;;;3.15;1.50;;;;;;;;;;5050692;28;20021;-69
2023/08/14 14:22:37;;;;;;;1.50;1.40;;;;;;;;;;5053207;28;20032;-69
2023/08/14 14:25:04;;;;;;;2.08;1.50;;;;;;;;;;5052000;28;20024;-69
2023/08/14 14:27:30;;;;;;;3.65;1.50;;;;;;;;;;5068082;28;20037;-69
2023/08/14 14:29:56;;;;;;;1.52;1.42;;;;;;;;;;5069489;28;20049;-68
2023/08/14 14:32:22;;;;;;;2.30;1.60;;;;;;;;;;5048633;28;20028;-68
2023/08/14 14:34:48;;;;;;;1.55;1.45;;;;;;;;;;5053569;28;20847;-68
2023/08/14 14:37:14;;;;;;;3.20;1.75;;;;;;;;;;5052492;28;20034;-69
2023/08/14 14:39:42;;;;;;;1.60;1.52;;;;;;;;;;5058515;28;20120;-68
2023/08/14 14:42:08;;;;;;;2.15;1.50;;;;;;;;;;5059248;28;20036;-68